createdAt,value
2023-05-22T00:02:15.446Z,23.30
2023-05-22T00:04:42.506Z,23.30
2023-05-22T00:07:09.416Z,23.30
2023-05-22T00:09:36.385Z,23.30
2023-05-22T00:12:03.559Z,23.30
2023-05-22T00:14:30.550Z,23.30
2023-05-22T00:16:58.591Z,23.20
2023-05-22T00:19:25.669Z,23.20
2023-05-22T00:21:52.623Z,23.20
2023-05-22T00:24:19.896Z,23.10
2023-05-22T00:26:46.842Z,23.10
2023-05-22T00:29:13.747Z,23.10
2023-05-22T00:31:40.718Z,23.10
2023-05-22T00:34:07.678Z,23.10
2023-05-22T00:36:34.617Z,23.10
2023-05-22T00:39:01.584Z,23.10
2023-05-22T00:41:28.572Z,23.10
2023-05-22T00:43:55.495Z,23.10
2023-05-22T00:46:23.091Z,23.00
2023-05-22T00:48:50.289Z,23.00
2023-05-22T00:51:17.268Z,23.00
2023-05-22T00:53:45.171Z,23.00
2023-05-22T00:56:13.220Z,23.00
2023-05-22T00:58:40.188Z,23.00
2023-05-22T01:01:09.811Z,23.00
2023-05-22T01:03:42.549Z,22.90
2023-05-22T01:06:09.617Z,22.90
2023-05-22T01:08:36.495Z,22.90
2023-05-22T01:11:42.837Z,22.90
2023-05-22T01:14:25.754Z,22.90
2023-05-22T01:17:30.260Z,22.90
2023-05-22T01:20:14.415Z,22.80
2023-05-22T01:22:58.739Z,22.90
2023-05-22T01:25:50.634Z,22.90
2023-05-22T01:28:29.861Z,22.90
2023-05-22T01:31:11.230Z,22.90
2023-05-22T01:33:58.279Z,22.90
2023-05-22T01:36:31.085Z,22.90
2023-05-22T01:39:01.708Z,22.90
2023-05-22T01:41:30.024Z,23.00
2023-05-22T01:43:57.436Z,22.90
2023-05-22T01:46:31.178Z,22.90
2023-05-22T01:48:58.205Z,22.90
2023-05-22T01:51:52.957Z,22.90
2023-05-22T01:54:58.487Z,22.90
2023-05-22T01:57:32.991Z,22.90
2023-05-22T02:00:10.040Z,22.90
2023-05-22T02:02:39.638Z,22.90
2023-05-22T02:05:11.371Z,22.90
2023-05-22T02:07:40.156Z,22.90
2023-05-22T02:10:10.261Z,22.90
2023-05-22T02:12:38.172Z,22.90
2023-05-22T02:15:07.061Z,22.90
2023-05-22T02:17:40.959Z,22.90
2023-05-22T02:20:15.634Z,22.90
2023-05-22T02:22:44.573Z,22.80
2023-05-22T02:25:17.497Z,22.90
2023-05-22T02:27:46.037Z,22.80
2023-05-22T02:30:14.304Z,22.80
2023-05-22T02:32:42.228Z,22.80
2023-05-22T02:35:09.920Z,22.80
2023-05-22T02:37:37.365Z,22.80
2023-05-22T02:40:06.534Z,22.80
2023-05-22T02:42:34.199Z,22.80
2023-05-22T02:45:01.327Z,22.80
2023-05-22T02:47:28.396Z,22.80
2023-05-22T02:49:58.095Z,22.80
2023-05-22T02:52:25.447Z,22.80
2023-05-22T02:54:52.417Z,22.80
2023-05-22T02:57:19.439Z,22.80
2023-05-22T02:59:46.460Z,22.70
2023-05-22T03:02:14.033Z,22.70
2023-05-22T03:04:42.062Z,22.70
2023-05-22T03:07:08.993Z,22.70
2023-05-22T03:09:36.251Z,22.70
2023-05-22T03:12:03.236Z,22.60
2023-05-22T03:14:30.104Z,22.60
2023-05-22T03:16:57.206Z,22.60
2023-05-22T03:19:24.359Z,22.60
2023-05-22T03:21:51.488Z,22.60
2023-05-22T03:24:18.623Z,22.60
2023-05-22T03:26:45.564Z,22.50
2023-05-22T03:29:12.538Z,22.50
2023-05-22T03:31:39.496Z,22.40
2023-05-22T03:34:07.379Z,22.40
2023-05-22T03:36:34.378Z,22.40
2023-05-22T03:39:05.304Z,22.30
2023-05-22T03:41:32.269Z,22.30
2023-05-22T03:43:59.360Z,22.30
2023-05-22T03:46:26.680Z,22.20
2023-05-22T03:48:53.743Z,22.20
2023-05-22T03:51:20.829Z,22.20
2023-05-22T03:53:47.972Z,22.10
2023-05-22T03:56:15.034Z,22.20
2023-05-22T03:58:41.973Z,22.10
2023-05-22T04:01:10.200Z,22.20
2023-05-22T04:03:40.284Z,22.10
2023-05-22T04:06:07.733Z,22.10
2023-05-22T04:08:35.229Z,22.10
2023-05-22T04:11:03.229Z,22.10
2023-05-22T04:13:31.095Z,22.10
2023-05-22T04:15:58.626Z,22.10
2023-05-22T04:18:25.685Z,22.00
2023-05-22T04:20:52.686Z,22.00
2023-05-22T04:23:19.640Z,22.00
2023-05-22T04:25:48.138Z,22.00
2023-05-22T04:28:17.685Z,22.10
2023-05-22T04:30:45.096Z,22.10
2023-05-22T04:33:12.825Z,22.10
2023-05-22T04:35:41.029Z,22.10
2023-05-22T04:38:08.184Z,22.10
2023-05-22T04:40:35.193Z,22.10
2023-05-22T04:43:03.536Z,22.10
2023-05-22T04:45:30.753Z,22.10
2023-05-22T04:47:57.785Z,22.10
2023-05-22T04:50:25.034Z,22.10
2023-05-22T04:52:51.998Z,22.20
2023-05-22T04:55:19.366Z,22.20
2023-05-22T04:57:47.507Z,22.20
2023-05-22T05:00:17.232Z,22.20
2023-05-22T05:02:44.355Z,22.20
2023-05-22T05:05:11.490Z,22.20
2023-05-22T05:07:39.971Z,22.20
2023-05-22T05:10:07.635Z,22.10
2023-05-22T05:12:34.717Z,22.20
2023-05-22T05:15:02.078Z,22.20
2023-05-22T05:17:29.175Z,22.20
2023-05-22T05:19:56.197Z,22.20
2023-05-22T05:22:23.192Z,22.20
2023-05-22T05:24:50.177Z,22.20
2023-05-22T05:27:17.229Z,22.20
2023-05-22T05:29:44.499Z,22.20
2023-05-22T05:32:13.046Z,22.20
2023-05-22T05:34:40.145Z,22.30
2023-05-22T05:37:07.237Z,22.30
2023-05-22T05:39:34.212Z,22.30
2023-05-22T05:42:01.296Z,22.30
2023-05-22T05:44:28.293Z,22.30
2023-05-22T05:46:55.272Z,22.30
2023-05-22T05:49:22.660Z,22.30
2023-05-22T05:51:49.610Z,22.30
2023-05-22T05:54:16.645Z,22.40
2023-05-22T05:56:43.861Z,22.40
2023-05-22T05:59:10.765Z,22.40
2023-05-22T06:01:38.829Z,22.40
2023-05-22T06:04:05.918Z,22.50
2023-05-22T06:06:36.475Z,22.50
2023-05-22T06:09:07.351Z,22.60
2023-05-22T06:11:34.705Z,22.60
2023-05-22T06:14:05.291Z,22.60
2023-05-22T06:16:32.323Z,22.70
2023-05-22T06:18:59.905Z,22.70
2023-05-22T06:21:26.929Z,22.70
2023-05-22T06:23:53.918Z,22.80
2023-05-22T06:26:22.034Z,22.80
2023-05-22T06:28:49.058Z,22.90
2023-05-22T06:31:15.973Z,22.90
2023-05-22T06:33:43.532Z,23.00
2023-05-22T06:36:11.749Z,23.00
2023-05-22T06:38:39.377Z,23.00
2023-05-22T06:41:08.002Z,23.10
2023-05-22T06:43:35.125Z,23.10
2023-05-22T06:46:02.156Z,23.10
2023-05-22T06:48:29.103Z,23.20
2023-05-22T06:50:56.014Z,23.20
2023-05-22T06:53:23.984Z,23.30
2023-05-22T06:55:51.236Z,23.30
2023-05-22T06:58:18.785Z,23.40
2023-05-22T07:00:45.855Z,23.50
2023-05-22T07:03:12.895Z,23.60
2023-05-22T07:05:39.976Z,23.60
2023-05-22T07:08:08.517Z,23.70
2023-05-22T07:10:35.474Z,23.70
2023-05-22T07:13:02.446Z,23.80
2023-05-22T07:15:29.393Z,23.90
2023-05-22T07:17:56.403Z,23.90
2023-05-22T07:20:25.737Z,24.00
2023-05-22T07:22:52.690Z,24.10
2023-05-22T07:25:19.605Z,24.10
2023-05-22T07:27:46.618Z,24.20
2023-05-22T07:30:13.838Z,24.20
2023-05-22T07:32:40.822Z,24.30
2023-05-22T07:35:08.289Z,24.40
2023-05-22T07:37:36.078Z,24.40
2023-05-22T07:40:05.465Z,24.50
2023-05-22T07:42:32.510Z,24.50
2023-05-22T07:44:59.577Z,24.60
2023-05-22T07:47:26.621Z,24.70
2023-05-22T07:49:53.712Z,24.70
2023-05-22T07:52:21.775Z,24.70
2023-05-22T07:54:48.794Z,24.80
2023-05-22T07:57:16.662Z,24.80
2023-05-22T07:59:44.173Z,24.90
2023-05-22T08:02:11.884Z,25.00
2023-05-22T08:04:39.136Z,25.00
2023-05-22T08:07:06.633Z,25.10
2023-05-22T08:09:34.648Z,25.10
2023-05-22T08:12:01.814Z,25.20
2023-05-22T08:14:29.131Z,25.30
2023-05-22T08:16:59.057Z,25.40
2023-05-22T08:19:26.477Z,25.40
2023-05-22T08:21:58.211Z,25.50
2023-05-22T08:24:30.599Z,25.50
2023-05-22T08:27:01.130Z,25.60
2023-05-22T08:29:28.814Z,25.70
2023-05-22T08:31:57.120Z,25.70
2023-05-22T08:34:25.292Z,25.80
2023-05-22T08:36:52.444Z,25.80
2023-05-22T08:39:19.521Z,25.90
2023-05-22T08:41:47.743Z,26.00
2023-05-22T08:44:14.847Z,26.10
2023-05-22T08:46:41.964Z,26.20
2023-05-22T08:49:13.362Z,26.40
2023-05-22T08:51:42.647Z,26.80
2023-05-22T08:54:10.056Z,27.30
2023-05-22T08:56:42.676Z,27.80
2023-05-22T08:59:17.426Z,28.50
2023-05-22T09:01:44.417Z,29.20
2023-05-22T09:04:12.570Z,29.90
2023-05-22T09:06:39.718Z,30.60
2023-05-22T09:09:06.625Z,31.30
2023-05-22T09:11:33.581Z,32.00
2023-05-22T09:14:10.745Z,32.70
2023-05-22T09:16:48.968Z,33.30
2023-05-22T09:19:16.524Z,33.90
2023-05-22T09:21:48.141Z,34.40
2023-05-22T09:24:15.251Z,35.00
2023-05-22T09:26:42.532Z,35.30
2023-05-22T09:29:09.722Z,35.60
2023-05-22T09:31:43.946Z,35.70
2023-05-22T09:34:14.347Z,35.70
2023-05-22T09:36:42.213Z,35.40
2023-05-22T09:39:10.469Z,35.10
2023-05-22T09:41:39.011Z,34.90
2023-05-22T09:44:16.805Z,34.40
2023-05-22T09:46:48.039Z,34.00
2023-05-22T09:49:16.792Z,33.50
2023-05-22T09:51:48.405Z,33.20
2023-05-22T09:54:17.690Z,32.80
2023-05-22T09:56:46.948Z,32.40
2023-05-22T09:59:15.350Z,32.00
2023-05-22T10:01:42.839Z,31.80
2023-05-22T10:04:14.414Z,31.50
2023-05-22T10:06:42.930Z,31.20
2023-05-22T10:09:19.084Z,31.00
2023-05-22T10:11:47.653Z,30.70
2023-05-22T10:14:15.901Z,30.50
2023-05-22T10:16:45.098Z,30.30
2023-05-22T10:19:13.196Z,30.20
2023-05-22T10:21:42.182Z,30.10
2023-05-22T10:24:10.142Z,30.00
2023-05-22T10:26:37.819Z,29.90
2023-05-22T10:29:19.432Z,29.80
2023-05-22T10:32:03.562Z,29.70
2023-05-22T10:34:42.515Z,29.70
2023-05-22T10:37:27.373Z,29.60
2023-05-22T10:40:09.162Z,29.60
2023-05-22T10:42:38.466Z,29.50
2023-05-22T10:45:08.231Z,29.50
2023-05-22T10:47:35.448Z,29.50
2023-05-22T10:50:12.442Z,29.40
2023-05-22T10:52:40.525Z,29.40
2023-05-22T10:55:11.447Z,29.40
2023-05-22T10:57:40.176Z,29.40
2023-05-22T11:00:12.511Z,29.40
2023-05-22T11:02:45.373Z,29.40
2023-05-22T11:05:34.536Z,29.40
2023-05-22T11:08:33.978Z,29.40
2023-05-22T11:11:11.524Z,29.40
2023-05-22T11:13:39.177Z,29.40
2023-05-22T11:16:06.587Z,29.40
2023-05-22T11:18:33.631Z,29.40
2023-05-22T11:21:01.030Z,29.50
2023-05-22T11:23:28.055Z,29.50
2023-05-22T11:25:54.985Z,29.60
2023-05-22T11:28:23.758Z,29.60
2023-05-22T11:30:52.411Z,29.70
2023-05-22T11:33:19.545Z,29.80
2023-05-22T11:35:48.178Z,29.80
2023-05-22T11:38:15.402Z,29.80
2023-05-22T11:40:42.678Z,29.80
2023-05-22T11:43:09.716Z,29.80
2023-05-22T11:45:40.636Z,29.80
2023-05-22T11:48:08.872Z,29.90
2023-05-22T11:50:42.503Z,29.90
2023-05-22T11:53:10.336Z,29.90
2023-05-22T11:55:37.350Z,30.00
2023-05-22T11:58:04.285Z,30.10
2023-05-22T12:00:32.959Z,30.10
2023-05-22T12:03:00.174Z,30.10
2023-05-22T12:05:27.271Z,30.20
2023-05-22T12:07:54.387Z,30.20
2023-05-22T12:10:21.373Z,30.20
2023-05-22T12:12:48.637Z,30.20
2023-05-22T12:15:20.320Z,30.30
2023-05-22T12:17:47.286Z,30.30
2023-05-22T12:20:15.739Z,30.30
2023-05-22T12:22:44.201Z,30.30
2023-05-22T12:25:17.628Z,30.30
2023-05-22T12:27:47.985Z,30.30
2023-05-22T12:30:16.091Z,30.30
2023-05-22T12:32:50.894Z,30.20
2023-05-22T12:35:18.680Z,30.20
2023-05-22T12:37:52.471Z,30.10
2023-05-22T12:40:19.589Z,30.10
2023-05-22T12:42:47.909Z,30.10
2023-05-22T12:45:15.102Z,30.00
2023-05-22T12:47:42.230Z,29.90
2023-05-22T12:50:09.508Z,29.90
2023-05-22T12:52:36.685Z,29.80
2023-05-22T12:55:03.857Z,29.70
2023-05-22T12:57:30.756Z,29.70
2023-05-22T12:59:58.245Z,29.60
2023-05-22T13:02:25.205Z,29.50
2023-05-22T13:04:52.160Z,29.50
2023-05-22T13:07:19.071Z,29.40
2023-05-22T13:09:46.109Z,29.40
2023-05-22T13:12:13.218Z,29.40
2023-05-22T13:14:40.823Z,29.30
2023-05-22T13:17:08.157Z,29.20
2023-05-22T13:19:35.290Z,29.20
2023-05-22T13:22:02.476Z,29.20
2023-05-22T13:24:29.754Z,29.10
2023-05-22T13:26:56.635Z,28.90
2023-05-22T13:29:23.589Z,28.90
2023-05-22T13:31:50.518Z,28.70
2023-05-22T13:34:17.524Z,28.60
2023-05-22T13:36:44.721Z,28.40
2023-05-22T13:39:11.735Z,28.30
2023-05-22T13:41:38.790Z,28.20
2023-05-22T13:44:05.754Z,28.10
2023-05-22T13:46:32.728Z,27.90
2023-05-22T13:48:59.861Z,27.80
2023-05-22T13:51:26.901Z,27.80
2023-05-22T13:53:53.897Z,27.70
2023-05-22T13:56:22.518Z,27.60
2023-05-22T13:58:49.589Z,27.60
2023-05-22T14:01:16.494Z,27.60
2023-05-22T14:03:44.712Z,27.60
2023-05-22T14:06:11.842Z,27.70
2023-05-22T14:08:38.839Z,27.80
2023-05-22T14:11:05.857Z,27.80
2023-05-22T14:13:32.886Z,27.80
2023-05-22T14:15:59.852Z,27.90
2023-05-22T14:18:26.810Z,27.90
2023-05-22T14:20:54.057Z,27.90
2023-05-22T14:23:21.118Z,27.90
2023-05-22T14:25:48.065Z,27.90
2023-05-22T14:28:16.204Z,27.80
2023-05-22T14:30:43.165Z,27.80
2023-05-22T14:33:10.195Z,27.70
2023-05-22T14:35:37.240Z,27.60
2023-05-22T14:38:04.158Z,27.50
2023-05-22T14:40:31.256Z,27.30
2023-05-22T14:42:58.288Z,27.20
2023-05-22T14:45:25.186Z,27.00
2023-05-22T14:47:52.237Z,26.90
2023-05-22T14:50:20.807Z,26.80
2023-05-22T14:52:49.105Z,26.70
2023-05-22T14:55:17.102Z,26.60
2023-05-22T14:57:44.267Z,26.60
2023-05-22T15:00:12.479Z,26.50
2023-05-22T15:02:39.965Z,26.50
2023-05-22T15:05:07.432Z,26.60
2023-05-22T15:10:05.812Z,27.10
2023-05-22T15:12:33.424Z,27.50
2023-05-22T15:15:00.520Z,27.90
2023-05-22T15:17:27.545Z,28.50
2023-05-22T15:19:54.494Z,29.10
2023-05-22T15:22:21.376Z,29.70
2023-05-22T15:24:48.944Z,30.40
2023-05-22T15:27:17.373Z,31.10
2023-05-22T15:29:44.298Z,31.80
2023-05-22T15:32:11.313Z,32.50
2023-05-22T15:34:38.390Z,33.10
2023-05-22T15:37:05.563Z,33.70
2023-05-22T15:39:32.501Z,34.20
2023-05-22T15:42:06.387Z,34.60
2023-05-22T15:44:34.155Z,35.00
2023-05-22T15:47:01.380Z,35.20
2023-05-22T15:49:30.901Z,35.30
2023-05-22T15:51:58.759Z,35.30
2023-05-22T15:54:25.904Z,35.00
2023-05-22T15:56:52.864Z,34.70
2023-05-22T15:59:19.759Z,34.40
2023-05-22T16:01:46.885Z,34.00
2023-05-22T16:04:13.920Z,33.70
2023-05-22T16:06:41.077Z,33.30
2023-05-22T16:09:08.196Z,32.90
2023-05-22T16:11:35.153Z,32.60
2023-05-22T16:14:02.066Z,32.30
2023-05-22T16:16:29.158Z,32.00
2023-05-22T16:18:56.184Z,31.80
2023-05-22T16:21:23.179Z,31.50
2023-05-22T16:23:50.135Z,31.20
2023-05-22T16:26:17.054Z,31.00
2023-05-22T16:28:43.966Z,30.80
2023-05-22T16:31:13.002Z,30.60
2023-05-22T16:33:39.937Z,30.50
2023-05-22T16:36:07.353Z,30.40
2023-05-22T16:38:34.396Z,30.20
2023-05-22T16:41:01.451Z,30.10
2023-05-22T16:43:28.431Z,30.00
2023-05-22T16:45:55.503Z,29.90
2023-05-22T16:48:22.470Z,29.80
2023-05-22T16:50:49.389Z,29.70
2023-05-22T16:53:19.442Z,29.60
2023-05-22T16:55:46.464Z,29.60
2023-05-22T16:58:14.115Z,29.50
2023-05-22T17:00:41.608Z,29.30
2023-05-22T17:03:09.847Z,29.20
2023-05-22T17:05:37.795Z,29.10
2023-05-22T17:08:04.926Z,29.00
2023-05-22T17:10:31.888Z,28.90
2023-05-22T17:12:58.781Z,28.80
2023-05-22T17:15:25.775Z,28.70
2023-05-22T17:17:52.704Z,28.60
2023-05-22T17:20:23.192Z,28.50
2023-05-22T17:22:50.542Z,28.50
2023-05-22T17:25:17.448Z,28.40
2023-05-22T17:27:44.829Z,28.30
2023-05-22T17:30:12.037Z,28.20
2023-05-22T17:32:39.010Z,28.10
2023-05-22T17:35:07.048Z,28.00
2023-05-22T17:37:34.329Z,27.90
2023-05-22T17:40:01.322Z,27.80
2023-05-22T17:42:28.248Z,27.70
2023-05-22T17:44:55.241Z,27.60
2023-05-22T17:47:22.287Z,27.50
2023-05-22T17:49:49.396Z,27.40
2023-05-22T17:52:16.465Z,27.40
2023-05-22T17:54:43.417Z,27.20
2023-05-22T17:57:10.356Z,27.20
2023-05-22T17:59:39.853Z,27.10
2023-05-22T18:02:08.025Z,27.00
2023-05-22T18:04:35.851Z,27.00
2023-05-22T18:07:02.994Z,26.90
2023-05-22T18:09:29.900Z,26.80
2023-05-22T18:11:57.124Z,26.80
2023-05-22T18:14:24.087Z,26.80
2023-05-22T18:16:51.074Z,26.70
2023-05-22T18:19:18.026Z,26.70
2023-05-22T18:21:44.990Z,26.60
2023-05-22T18:24:13.651Z,26.60
2023-05-22T18:26:41.100Z,26.50
2023-05-22T18:29:08.117Z,26.50
2023-05-22T18:31:35.043Z,26.50
2023-05-22T18:34:01.929Z,26.40
2023-05-22T18:36:28.862Z,26.40
2023-05-22T18:38:55.734Z,26.30
2023-05-22T18:41:22.644Z,26.20
2023-05-22T18:43:50.452Z,26.20
2023-05-22T18:46:17.416Z,26.20
2023-05-22T18:48:44.367Z,26.10
2023-05-22T18:51:11.347Z,26.10
2023-05-22T18:53:38.288Z,26.00
2023-05-22T18:56:05.274Z,26.00
2023-05-22T18:58:32.206Z,25.90
2023-05-22T19:00:59.262Z,25.80
2023-05-22T19:03:26.573Z,25.70
2023-05-22T19:05:53.674Z,25.60
2023-05-22T19:08:20.668Z,25.50
2023-05-22T19:10:47.590Z,25.40
2023-05-22T19:13:14.592Z,25.30
2023-05-22T19:15:41.864Z,25.20
2023-05-22T19:18:08.846Z,25.10
2023-05-22T19:20:35.809Z,25.00
2023-05-22T19:23:02.893Z,24.80
2023-05-22T19:25:29.983Z,24.70
2023-05-22T19:27:56.971Z,24.70
2023-05-22T19:30:23.964Z,24.60
2023-05-22T19:32:51.011Z,24.60
2023-05-22T19:35:18.167Z,24.50
2023-05-22T19:37:46.056Z,24.40
2023-05-22T19:40:13.109Z,24.40
2023-05-22T19:42:41.891Z,24.40
2023-05-22T19:45:09.290Z,24.20
2023-05-22T19:47:36.275Z,24.20
2023-05-22T19:50:03.933Z,24.20
2023-05-22T19:52:30.856Z,24.20
2023-05-22T19:54:57.877Z,24.10
2023-05-22T19:57:24.835Z,24.20
2023-05-22T19:59:51.700Z,24.10
2023-05-22T20:02:18.610Z,24.00
2023-05-22T20:04:48.491Z,24.00
2023-05-22T20:07:15.730Z,24.00
2023-05-22T20:09:42.644Z,24.00
2023-05-22T20:12:10.582Z,24.00
2023-05-22T20:14:37.853Z,24.00
2023-05-22T20:17:05.587Z,24.00
2023-05-22T20:19:34.676Z,24.00
2023-05-22T20:22:02.183Z,24.00
2023-05-22T20:24:29.697Z,24.00
2023-05-22T20:26:57.021Z,24.00
2023-05-22T20:29:24.049Z,24.00
2023-05-22T20:31:54.717Z,24.00
2023-05-22T20:34:22.343Z,24.00
2023-05-22T20:36:49.596Z,24.00
2023-05-22T20:39:18.187Z,24.00
2023-05-22T20:41:46.732Z,24.00
2023-05-22T20:44:13.639Z,24.00
2023-05-22T20:46:40.700Z,24.00
2023-05-22T20:49:07.810Z,24.00
2023-05-22T20:51:34.797Z,23.90
2023-05-22T20:54:01.777Z,23.90
2023-05-22T20:56:30.119Z,23.90
2023-05-22T20:58:57.448Z,23.90
2023-05-22T21:01:25.536Z,23.90
2023-05-22T21:03:56.553Z,23.90
2023-05-22T21:06:23.845Z,23.90
2023-05-22T21:08:53.285Z,23.90
2023-05-22T21:11:21.052Z,23.90
2023-05-22T21:13:47.990Z,23.90
2023-05-22T21:16:14.902Z,23.90
2023-05-22T21:18:41.817Z,23.90
2023-05-22T21:21:08.692Z,23.90
2023-05-22T21:23:35.813Z,23.80
2023-05-22T21:26:02.897Z,23.80
2023-05-22T21:28:30.131Z,23.80
2023-05-22T21:30:57.050Z,23.80
2023-05-22T21:33:24.009Z,23.80
2023-05-22T21:35:50.899Z,23.80
2023-05-22T21:38:17.804Z,23.80
2023-05-22T21:40:44.819Z,23.80
2023-05-22T21:43:11.743Z,23.80
2023-05-22T21:45:39.005Z,23.70
2023-05-22T21:48:06.205Z,23.70
2023-05-22T21:50:33.220Z,23.70
2023-05-22T21:53:00.168Z,23.70
2023-05-22T21:55:27.120Z,23.70
2023-05-22T21:57:55.688Z,23.60
2023-05-22T22:00:22.912Z,23.60
2023-05-22T22:02:49.950Z,23.60
2023-05-22T22:05:18.689Z,23.60
2023-05-22T22:07:45.875Z,23.60
2023-05-22T22:10:12.839Z,23.50
2023-05-22T22:12:39.768Z,23.50
2023-05-22T22:15:07.415Z,23.50
2023-05-22T22:17:34.896Z,23.50
2023-05-22T22:20:01.908Z,23.40
2023-05-22T22:22:28.786Z,23.40
2023-05-22T22:24:55.889Z,23.40
2023-05-22T22:27:22.834Z,23.30
2023-05-22T22:29:49.832Z,23.40
2023-05-22T22:32:17.011Z,23.30
2023-05-22T22:34:45.350Z,23.30
2023-05-22T22:37:13.980Z,23.20
2023-05-22T22:39:40.999Z,23.20
2023-05-22T22:42:08.083Z,23.20
2023-05-22T22:44:34.949Z,23.20
2023-05-22T22:47:02.320Z,23.20
2023-05-22T22:49:29.329Z,23.20
2023-05-22T22:51:56.545Z,23.20
2023-05-22T22:54:24.328Z,23.20
2023-05-22T22:56:51.946Z,23.10
2023-05-22T22:59:18.907Z,23.10
2023-05-22T23:01:45.977Z,23.10
2023-05-22T23:04:14.270Z,23.10
2023-05-22T23:06:42.715Z,23.10
2023-05-22T23:09:11.238Z,23.10
2023-05-22T23:11:38.800Z,23.00
2023-05-22T23:14:08.981Z,23.00
2023-05-22T23:16:37.203Z,23.00
2023-05-22T23:19:05.271Z,23.00
2023-05-22T23:21:33.089Z,23.00
2023-05-22T23:24:01.059Z,23.00
2023-05-22T23:26:28.536Z,23.00
2023-05-22T23:28:55.507Z,23.00
2023-05-22T23:31:26.355Z,22.90
2023-05-22T23:33:53.371Z,22.90
2023-05-22T23:36:20.637Z,22.90
2023-05-22T23:38:48.176Z,22.80
2023-05-22T23:41:16.258Z,22.80
2023-05-22T23:43:43.711Z,22.80
2023-05-22T23:46:13.359Z,22.80
2023-05-22T23:48:41.743Z,22.80
2023-05-22T23:51:09.286Z,22.70
2023-05-22T23:53:36.865Z,22.60
2023-05-22T23:56:06.527Z,22.60
2023-05-22T23:58:33.554Z,22.50
